createdAt,value
2019-02-19T00:00:53.016Z,5.87
2019-02-19T00:01:52.023Z,5.83
2019-02-19T00:05:09.523Z,5.87
2019-02-19T00:06:03.151Z,5.84
2019-02-19T00:07:03.241Z,5.84
2019-02-19T00:08:04.813Z,5.86
2019-02-19T00:09:03.124Z,5.83
2019-02-19T00:10:03.031Z,5.83
2019-02-19T00:11:21.615Z,5.90
2019-02-19T00:13:04.013Z,5.91
2019-02-19T00:15:08.368Z,5.90
2019-02-19T00:16:03.583Z,5.80
2019-02-19T00:17:02.903Z,5.87
2019-02-19T00:18:04.595Z,5.84
2019-02-19T00:19:02.831Z,5.84
2019-02-19T00:20:04.525Z,5.87
2019-02-19T00:21:02.699Z,5.83
2019-02-19T00:22:03.079Z,5.80
2019-02-19T00:23:02.818Z,5.87
2019-02-19T00:24:03.029Z,5.83
2019-02-19T00:25:03.443Z,5.89
2019-02-19T00:26:02.768Z,5.89
2019-02-19T00:27:09.438Z,5.86
2019-02-19T00:28:04.627Z,5.87
2019-02-19T00:29:02.816Z,5.86
2019-02-19T00:30:07.443Z,5.84
2019-02-19T00:31:03.349Z,5.94
2019-02-19T00:32:05.536Z,5.94
2019-02-19T00:33:05.467Z,6.01
2019-02-19T00:34:03.657Z,5.98
2019-02-19T00:35:02.726Z,6.02
2019-02-19T00:36:04.906Z,5.84
2019-02-19T00:37:09.481Z,5.84
2019-02-19T00:38:02.734Z,5.84
2019-02-19T00:39:02.495Z,5.83
2019-02-19T00:40:03.148Z,5.89
2019-02-19T00:41:02.535Z,5.87
2019-02-19T00:42:02.487Z,5.86
2019-02-19T00:43:02.450Z,5.84
2019-02-19T00:44:02.395Z,5.76
2019-02-19T00:45:02.231Z,5.76
2019-02-19T00:46:02.318Z,5.72
2019-02-19T00:47:02.411Z,5.75
2019-02-19T00:48:02.496Z,5.76
2019-02-19T00:49:02.387Z,5.69
2019-02-19T00:50:02.323Z,5.80
2019-02-19T00:51:03.896Z,5.84
2019-02-19T00:52:02.842Z,5.83
2019-02-19T00:53:03.021Z,5.83
2019-02-19T00:54:02.145Z,5.82
2019-02-19T00:55:02.518Z,5.82
2019-02-19T00:56:02.169Z,5.82
2019-02-19T00:57:02.004Z,5.87
2019-02-19T00:58:05.109Z,5.90
2019-02-19T00:59:02.258Z,5.83
2019-02-19T01:00:04.092Z,5.90
2019-02-19T01:01:04.023Z,5.89
2019-02-19T01:02:02.095Z,5.83
2019-02-19T01:03:02.304Z,5.79
2019-02-19T01:04:17.150Z,5.83
2019-02-19T01:05:04.940Z,5.80
2019-02-19T01:06:02.234Z,5.84
2019-02-19T01:07:02.095Z,5.80
2019-02-19T01:08:02.067Z,5.83
2019-02-19T01:09:02.012Z,5.90
2019-02-19T01:10:06.943Z,5.84
2019-02-19T01:11:02.129Z,5.93
2019-02-19T01:12:02.505Z,5.90
2019-02-19T01:13:02.005Z,5.84
2019-02-19T01:14:01.935Z,5.84
2019-02-19T01:15:01.988Z,5.89
2019-02-19T01:16:01.913Z,5.90
2019-02-19T01:17:01.903Z,5.94
2019-02-19T01:18:01.862Z,5.91
2019-02-19T01:19:02.815Z,5.84
2019-02-19T01:20:01.859Z,5.91
2019-02-19T01:21:02.656Z,5.94
2019-02-19T01:22:02.467Z,5.97
2019-02-19T01:24:10.965Z,5.94
2019-02-19T01:26:00.683Z,5.93
2019-02-19T01:26:55.565Z,5.89
2019-02-19T01:29:18.037Z,6.01
2019-02-19T01:31:38.502Z,5.87
2019-02-19T01:32:38.662Z,5.91
2019-02-19T01:33:39.774Z,5.94
2019-02-19T01:34:38.265Z,5.99
2019-02-19T01:36:39.738Z,5.98
2019-02-19T01:37:38.173Z,5.91
2019-02-19T01:38:39.799Z,5.89
2019-02-19T01:39:38.267Z,5.91
2019-02-19T01:40:38.122Z,5.98
2019-02-19T01:41:38.747Z,5.94
2019-02-19T01:42:38.753Z,6.05
2019-02-19T01:43:38.874Z,6.05
2019-02-19T01:44:38.183Z,5.91
2019-02-19T01:45:41.002Z,5.97
2019-02-19T01:46:37.939Z,6.01
2019-02-19T01:47:38.115Z,5.99
2019-02-19T01:48:38.833Z,6.01
2019-02-19T01:49:38.098Z,5.97
2019-02-19T01:50:40.767Z,6.01
2019-02-19T01:51:41.058Z,6.01
2019-02-19T01:52:38.030Z,6.08
2019-02-19T01:53:40.917Z,6.02
2019-02-19T01:54:37.905Z,6.09
2019-02-19T01:55:37.665Z,6.04
2019-02-19T01:56:37.884Z,6.01
2019-02-19T01:57:40.847Z,6.01
2019-02-19T01:59:37.861Z,5.97
2019-02-19T02:00:38.306Z,6.07
2019-02-19T02:01:37.720Z,5.97
2019-02-19T02:02:38.311Z,5.98
2019-02-19T02:03:40.149Z,5.99
2019-02-19T02:04:42.222Z,5.97
2019-02-19T02:05:37.677Z,6.02
2019-02-19T02:06:38.184Z,6.08
2019-02-19T02:07:39.216Z,6.11
2019-02-19T02:08:38.203Z,6.01
2019-02-19T02:09:39.196Z,5.99
2019-02-19T02:10:38.443Z,6.05
2019-02-19T02:11:38.420Z,6.12
2019-02-19T02:13:37.551Z,6.08
2019-02-19T02:14:42.571Z,6.09
2019-02-19T02:15:48.457Z,5.99
2019-02-19T02:16:39.279Z,6.05
2019-02-19T02:17:37.508Z,6.07
2019-02-19T02:18:40.212Z,6.08
2019-02-19T02:19:40.340Z,6.07
2019-02-19T02:22:02.479Z,6.11
2019-02-19T02:22:59.988Z,6.09
2019-02-19T02:23:59.304Z,6.07
2019-02-19T02:24:59.357Z,6.09
2019-02-19T02:25:59.320Z,6.08
2019-02-19T02:26:59.166Z,6.08
2019-02-19T02:27:59.243Z,6.16
2019-02-19T02:28:59.384Z,6.11
2019-02-19T02:29:59.359Z,6.22
2019-02-19T02:30:59.196Z,6.08
2019-02-19T02:32:01.947Z,6.11
2019-02-19T02:32:59.063Z,6.14
2019-02-19T02:33:59.102Z,6.14
2019-02-19T02:34:59.211Z,6.19
2019-02-19T02:35:59.278Z,6.14
2019-02-19T02:36:59.240Z,6.16
2019-02-19T02:37:59.024Z,6.30
2019-02-19T02:39:00.084Z,6.30
2019-02-19T02:39:59.001Z,6.14
2019-02-19T02:41:01.915Z,6.17
2019-02-19T02:41:59.108Z,6.22
2019-02-19T02:42:59.017Z,6.19
2019-02-19T02:44:01.042Z,6.26
2019-02-19T02:44:59.000Z,6.35
2019-02-19T02:45:58.866Z,6.12
2019-02-19T02:46:58.880Z,6.28
2019-02-19T02:47:59.013Z,6.16
2019-02-19T02:49:01.370Z,6.14
2019-02-19T02:49:58.978Z,6.11
2019-02-19T02:50:58.767Z,6.14
2019-02-19T02:51:58.836Z,6.11
2019-02-19T02:52:59.461Z,6.05
2019-02-19T02:53:58.840Z,6.02
2019-02-19T02:54:58.716Z,6.09
2019-02-19T02:56:59.350Z,6.07
2019-02-19T02:57:58.750Z,6.05
2019-02-19T02:58:58.704Z,6.08
2019-02-19T02:59:58.675Z,6.07
2019-02-19T03:00:58.808Z,6.04
2019-02-19T03:01:58.538Z,6.01
2019-02-19T03:03:00.336Z,6.04
2019-02-19T03:03:58.510Z,6.08
2019-02-19T03:04:58.639Z,6.12
2019-02-19T03:06:05.456Z,5.98
2019-02-19T03:07:03.339Z,6.02
2019-02-19T03:07:58.561Z,6.05
2019-02-19T03:08:58.500Z,5.98
2019-02-19T03:10:00.412Z,6.08
2019-02-19T03:11:19.340Z,5.98
2019-02-19T03:11:58.408Z,6.07
2019-02-19T03:12:58.656Z,5.99
2019-02-19T03:13:58.689Z,5.98
2019-02-19T03:14:58.587Z,6.01
2019-02-19T03:16:02.513Z,6.01
2019-02-19T03:16:58.387Z,6.01
2019-02-19T03:17:58.856Z,5.93
2019-02-19T03:18:58.328Z,5.94
2019-02-19T03:19:58.414Z,5.99
2019-02-19T03:20:59.952Z,5.93
2019-02-19T03:21:58.553Z,6.02
2019-02-19T03:23:00.846Z,6.01
2019-02-19T03:23:58.244Z,6.01
2019-02-19T03:24:58.177Z,6.04
2019-02-19T03:25:58.919Z,6.07
2019-02-19T03:26:59.018Z,6.05
2019-02-19T03:27:58.979Z,6.02
2019-02-19T03:28:58.912Z,5.99
2019-02-19T03:29:58.184Z,6.02
2019-02-19T03:30:59.985Z,6.01
2019-02-19T03:31:58.903Z,5.94
2019-02-19T03:32:58.280Z,5.89
2019-02-19T03:33:58.134Z,5.99
2019-02-19T03:35:58.003Z,6.01
2019-02-19T03:37:00.039Z,5.99
2019-02-19T03:37:58.020Z,6.05
2019-02-19T03:38:57.911Z,6.07
2019-02-19T03:39:57.926Z,6.01
2019-02-19T03:40:57.996Z,6.01
2019-02-19T03:42:00.616Z,5.94
2019-02-19T03:42:57.925Z,5.94
2019-02-19T03:43:58.095Z,5.97
2019-02-19T03:44:57.941Z,5.99
2019-02-19T03:45:57.986Z,6.01
2019-02-19T03:47:00.888Z,6.01
2019-02-19T03:47:57.813Z,5.98
2019-02-19T03:48:57.702Z,5.99
2019-02-19T03:49:58.570Z,6.08
2019-02-19T03:51:10.009Z,6.09
2019-02-19T03:52:50.982Z,6.02
2019-02-19T03:53:51.087Z,6.01
2019-02-19T03:54:51.054Z,6.04
2019-02-19T03:55:51.094Z,5.98
2019-02-19T03:56:50.954Z,6.02
2019-02-19T03:57:50.990Z,5.93
2019-02-19T03:58:50.857Z,5.94
2019-02-19T03:59:52.602Z,5.98
2019-02-19T04:00:50.841Z,5.83
2019-02-19T04:01:50.778Z,5.90
2019-02-19T04:02:50.928Z,5.83
2019-02-19T04:03:50.832Z,5.87
2019-02-19T04:04:50.864Z,5.94
2019-02-19T04:05:52.570Z,5.84
2019-02-19T04:06:52.553Z,5.91
2019-02-19T04:07:50.649Z,5.80
2019-02-19T04:08:50.784Z,5.87
2019-02-19T04:09:50.722Z,5.83
2019-02-19T04:10:50.653Z,5.82
2019-02-19T04:11:50.675Z,5.84
2019-02-19T04:12:50.657Z,5.83
2019-02-19T04:13:50.592Z,5.79
2019-02-19T04:14:50.642Z,5.89
2019-02-19T04:15:50.596Z,5.83
2019-02-19T04:16:50.588Z,5.87
2019-02-19T04:17:50.456Z,5.83
2019-02-19T04:18:50.676Z,5.80
2019-02-19T04:19:50.663Z,5.73
2019-02-19T04:20:50.444Z,5.89
2019-02-19T04:21:50.482Z,5.80
2019-02-19T04:22:50.560Z,5.79
2019-02-19T04:23:51.266Z,5.75
2019-02-19T04:24:50.445Z,5.84
2019-02-19T04:25:53.167Z,5.75
2019-02-19T04:26:50.414Z,5.80
2019-02-19T04:27:51.063Z,5.75
2019-02-19T04:28:50.467Z,5.73
2019-02-19T04:29:51.228Z,5.73
2019-02-19T04:30:50.306Z,5.72
2019-02-19T04:31:50.351Z,5.84
2019-02-19T04:32:50.308Z,5.83
2019-02-19T04:33:50.245Z,5.86
2019-02-19T04:34:50.336Z,5.84
2019-02-19T04:35:50.327Z,5.84
2019-02-19T04:36:50.163Z,5.83
2019-02-19T04:37:50.209Z,5.90
2019-02-19T04:38:50.089Z,5.87
2019-02-19T04:39:50.355Z,5.91
2019-02-19T04:40:50.318Z,5.89
2019-02-19T04:41:51.047Z,5.89
2019-02-19T04:42:50.155Z,5.94
2019-02-19T04:43:50.141Z,5.91
2019-02-19T04:44:50.047Z,5.86
2019-02-19T04:45:50.133Z,5.89
2019-02-19T04:46:50.638Z,5.90
2019-02-19T04:47:50.015Z,5.86
2019-02-19T04:48:49.926Z,6.01
2019-02-19T04:49:50.615Z,5.91
2019-02-19T04:50:50.156Z,5.91
2019-02-19T04:51:50.007Z,5.94
2019-02-19T04:52:49.920Z,5.98
2019-02-19T04:53:49.925Z,5.94
2019-02-19T04:54:49.877Z,5.98
2019-02-19T04:55:49.956Z,5.97
2019-02-19T04:56:49.951Z,5.99
2019-02-19T04:57:49.897Z,5.99
2019-02-19T04:58:49.924Z,5.90
2019-02-19T04:59:49.749Z,6.04
2019-02-19T05:00:49.871Z,5.89
2019-02-19T05:01:49.723Z,5.98
2019-02-19T05:02:51.546Z,6.04
2019-02-19T05:03:49.654Z,5.94
2019-02-19T05:04:50.646Z,5.99
2019-02-19T05:05:49.652Z,6.01
2019-02-19T05:06:49.886Z,6.08
2019-02-19T05:07:50.592Z,5.99
2019-02-19T05:08:49.873Z,6.08
2019-02-19T05:09:50.700Z,6.05
2019-02-19T05:10:49.607Z,6.05
2019-02-19T05:11:49.690Z,6.01
2019-02-19T05:12:49.714Z,6.02
2019-02-19T05:13:49.648Z,6.02
2019-02-19T05:14:49.618Z,6.04
2019-02-19T05:15:49.600Z,6.07
2019-02-19T05:16:49.595Z,6.01
2019-02-19T05:17:49.495Z,6.04
2019-02-19T05:18:50.142Z,5.99
2019-02-19T05:19:49.570Z,6.01
2019-02-19T05:20:49.407Z,6.05
2019-02-19T05:21:50.007Z,5.99
2019-02-19T05:22:50.077Z,5.98
2019-02-19T05:23:49.363Z,6.04
2019-02-19T05:24:49.411Z,6.07
2019-02-19T05:25:49.390Z,6.08
2019-02-19T05:26:49.381Z,6.01
2019-02-19T05:27:50.096Z,6.01
2019-02-19T05:28:50.078Z,5.99
2019-02-19T05:29:50.110Z,6.01
2019-02-19T05:30:49.460Z,6.04
2019-02-19T05:31:49.404Z,5.94
2019-02-19T05:32:49.300Z,5.93
2019-02-19T05:33:49.236Z,5.90
2019-02-19T05:34:51.248Z,5.97
2019-02-19T05:35:49.333Z,5.91
2019-02-19T05:36:49.109Z,5.93
2019-02-19T05:37:49.209Z,5.99
2019-02-19T05:38:49.157Z,5.93
2019-02-19T05:39:49.157Z,5.97
2019-02-19T05:40:50.655Z,6.04
2019-02-19T05:41:49.002Z,5.98
2019-02-19T05:42:49.105Z,5.99
2019-02-19T05:43:49.096Z,6.01
2019-02-19T05:44:49.046Z,5.99
2019-02-19T05:45:48.956Z,5.93
2019-02-19T05:46:50.114Z,5.94
2019-02-19T05:47:49.070Z,5.94
2019-02-19T05:48:48.956Z,5.97
2019-02-19T05:49:48.958Z,5.90
2019-02-19T05:50:49.558Z,5.97
2019-02-19T05:51:49.054Z,5.99
2019-02-19T05:52:49.758Z,5.87
2019-02-19T05:53:48.912Z,5.91
2019-02-19T05:54:48.786Z,5.91
2019-02-19T05:55:49.775Z,5.89
2019-02-19T05:56:48.797Z,5.97
2019-02-19T05:57:48.898Z,5.98
2019-02-19T05:58:48.692Z,5.91
2019-02-19T05:59:49.667Z,5.91
2019-02-19T06:00:48.763Z,5.94
2019-02-19T06:01:49.602Z,5.91
2019-02-19T06:02:48.707Z,5.94
2019-02-19T06:03:48.834Z,5.98
2019-02-19T06:04:48.783Z,5.94
2019-02-19T06:05:48.834Z,5.90
2019-02-19T06:06:48.554Z,6.01
2019-02-19T06:07:48.756Z,6.01
2019-02-19T06:08:48.743Z,5.91
2019-02-19T06:09:48.686Z,5.93
2019-02-19T06:10:48.694Z,5.97
2019-02-19T06:11:48.526Z,5.99
2019-02-19T06:12:48.584Z,6.01
2019-02-19T06:13:49.271Z,6.04
2019-02-19T06:14:48.519Z,6.01
2019-02-19T06:15:48.472Z,6.07
2019-02-19T06:16:48.426Z,6.01
2019-02-19T06:17:48.411Z,5.97
2019-02-19T06:18:48.471Z,6.07
2019-02-19T06:19:48.449Z,6.08
2019-02-19T06:20:48.408Z,5.99
2019-02-19T06:21:48.536Z,6.02
2019-02-19T06:22:48.348Z,6.01
2019-02-19T06:23:49.260Z,6.09
2019-02-19T06:24:48.340Z,6.12
2019-02-19T06:25:48.451Z,6.07
2019-02-19T06:26:49.071Z,6.08
2019-02-19T06:27:48.221Z,6.01
2019-02-19T06:28:48.515Z,6.07
2019-02-19T06:29:48.230Z,6.11
2019-02-19T06:30:48.215Z,6.12
2019-02-19T06:31:48.273Z,6.22
2019-02-19T06:32:48.124Z,6.12
2019-02-19T06:33:49.215Z,6.17
2019-02-19T06:34:49.065Z,6.08
2019-02-19T06:35:48.213Z,6.22
2019-02-19T06:36:48.073Z,6.16
2019-02-19T06:37:48.249Z,6.22
2019-02-19T06:38:48.167Z,6.17
2019-02-19T06:39:48.489Z,6.17
2019-02-19T06:40:48.070Z,6.24
2019-02-19T06:41:48.054Z,6.35
2019-02-19T06:42:47.904Z,6.19
2019-02-19T06:43:48.693Z,6.16
2019-02-19T06:44:48.023Z,6.12
2019-02-19T06:46:48.747Z,6.02
2019-02-19T06:47:47.970Z,6.08
2019-02-19T06:48:48.810Z,6.08
2019-02-19T06:49:47.924Z,6.14
2019-02-19T06:50:49.660Z,6.05
2019-02-19T06:51:47.789Z,6.14
2019-02-19T06:52:47.858Z,6.14
2019-02-19T06:53:47.786Z,6.12
2019-02-19T06:54:47.839Z,6.20
2019-02-19T06:55:47.893Z,6.16
2019-02-19T06:56:47.735Z,6.16
2019-02-19T06:57:47.759Z,6.17
2019-02-19T06:58:47.793Z,6.30
2019-02-19T06:59:47.982Z,6.28
2019-02-19T07:00:47.635Z,6.28
2019-02-19T07:01:47.810Z,6.31
2019-02-19T07:02:47.738Z,6.19
2019-02-19T07:03:48.620Z,6.17
2019-02-19T07:04:47.636Z,6.24
2019-02-19T07:05:47.716Z,6.30
2019-02-19T07:06:48.062Z,6.24
2019-02-19T07:07:47.717Z,6.27
2019-02-19T07:08:47.477Z,6.26
2019-02-19T07:09:48.139Z,6.26
2019-02-19T07:10:47.531Z,6.26
2019-02-19T07:11:48.056Z,6.20
2019-02-19T07:12:47.607Z,6.35
2019-02-19T07:13:47.593Z,6.28
2019-02-19T07:14:47.360Z,6.22
2019-02-19T07:15:47.468Z,6.24
2019-02-19T07:16:47.508Z,6.38
2019-02-19T07:17:56.217Z,6.44
2019-02-19T07:21:20.922Z,6.45
2019-02-19T07:22:19.153Z,6.41
2019-02-19T07:24:39.813Z,6.46
2019-02-19T07:25:26.090Z,6.38
2019-02-19T07:26:25.531Z,6.42
2019-02-19T07:27:27.027Z,6.44
2019-02-19T07:28:25.481Z,6.48
2019-02-19T07:29:26.097Z,6.49
2019-02-19T07:30:25.400Z,6.49
2019-02-19T07:31:26.023Z,6.49
2019-02-19T07:32:25.340Z,6.49
2019-02-19T07:33:25.623Z,6.36
2019-02-19T07:34:28.208Z,6.38
2019-02-19T07:35:49.117Z,6.42
2019-02-19T07:36:26.029Z,6.45
2019-02-19T07:37:27.226Z,6.36
2019-02-19T07:38:27.107Z,6.22
2019-02-19T07:39:26.144Z,6.30
2019-02-19T07:40:47.159Z,6.36
2019-02-19T07:41:25.133Z,6.30
2019-02-19T07:42:26.154Z,6.30
2019-02-19T07:43:25.185Z,6.38
2019-02-19T07:44:26.166Z,6.24
2019-02-19T07:45:25.294Z,6.33
2019-02-19T07:46:26.336Z,6.17
2019-02-19T07:47:36.006Z,6.31
2019-02-19T07:48:36.346Z,6.24
2019-02-19T07:49:25.246Z,6.30
2019-02-19T07:50:26.579Z,6.28
2019-02-19T07:51:24.934Z,6.17
2019-02-19T07:52:25.111Z,6.24
2019-02-19T07:55:04.741Z,6.30
2019-02-19T07:56:01.617Z,6.27
2019-02-19T07:57:06.162Z,6.19
2019-02-19T07:58:01.503Z,6.11
2019-02-19T07:59:01.515Z,6.14
2019-02-19T08:00:01.633Z,6.20
2019-02-19T08:01:03.370Z,6.17
2019-02-19T08:02:08.234Z,6.19
2019-02-19T08:03:06.393Z,6.24
2019-02-19T08:04:03.307Z,6.26
2019-02-19T08:05:01.493Z,6.16
2019-02-19T08:06:04.171Z,6.27
2019-02-19T08:07:02.168Z,6.28
2019-02-19T08:08:04.168Z,6.12
2019-02-19T08:09:02.313Z,6.14
2019-02-19T08:10:01.296Z,6.19
2019-02-19T08:11:01.313Z,6.17
2019-02-19T08:12:08.110Z,6.09
2019-02-19T08:13:01.483Z,6.11
2019-02-19T08:14:01.491Z,6.16
2019-02-19T08:15:06.314Z,6.05
2019-02-19T08:16:02.051Z,6.01
2019-02-19T08:17:01.301Z,6.04
2019-02-19T08:18:05.648Z,6.04
2019-02-19T08:19:01.135Z,6.12
2019-02-19T08:20:01.036Z,6.08
2019-02-19T08:21:01.071Z,6.04
2019-02-19T08:22:01.387Z,6.04
2019-02-19T08:23:01.014Z,6.02
2019-02-19T08:24:01.217Z,6.05
2019-02-19T08:25:01.057Z,6.08
2019-02-19T08:26:01.103Z,6.05
2019-02-19T08:27:01.015Z,6.11
2019-02-19T08:28:01.019Z,5.98
2019-02-19T08:29:13.093Z,6.05
2019-02-19T08:30:03.613Z,6.12
2019-02-19T08:31:02.678Z,6.05
2019-02-19T08:32:00.739Z,5.98
2019-02-19T08:33:01.023Z,6.05
2019-02-19T08:34:00.785Z,6.05
2019-02-19T08:35:00.970Z,6.02
2019-02-19T08:36:07.727Z,6.14
2019-02-19T08:37:00.814Z,6.09
2019-02-19T08:38:00.872Z,6.04
2019-02-19T08:40:02.688Z,6.12
2019-02-19T08:41:00.766Z,6.05
2019-02-19T08:42:00.980Z,6.05
2019-02-19T08:43:00.869Z,6.05
2019-02-19T08:44:03.938Z,6.05
2019-02-19T08:45:00.614Z,6.05
2019-02-19T08:46:00.841Z,6.04
2019-02-19T08:47:02.258Z,6.09
2019-02-19T08:48:00.631Z,6.02
2019-02-19T08:49:00.445Z,6.05
2019-02-19T08:51:01.225Z,5.90
2019-02-19T08:52:05.073Z,6.04
2019-02-19T08:53:00.665Z,6.04
2019-02-19T08:54:00.606Z,6.02
2019-02-19T08:55:00.517Z,5.97
2019-02-19T08:56:02.072Z,5.93
2019-02-19T08:57:00.670Z,5.98
2019-02-19T08:58:00.610Z,5.97
2019-02-19T08:59:01.382Z,5.94
2019-02-19T09:00:00.355Z,6.04
2019-02-19T09:01:00.317Z,6.08
2019-02-19T09:02:05.293Z,6.08
2019-02-19T09:03:01.244Z,6.11
2019-02-19T09:04:01.075Z,6.08
2019-02-19T09:05:00.397Z,6.04
2019-02-19T09:06:00.355Z,5.99
2019-02-19T09:07:00.443Z,6.05
2019-02-19T09:08:01.077Z,6.05
2019-02-19T09:09:02.210Z,6.07
2019-02-19T09:10:00.348Z,6.08
2019-02-19T09:11:00.318Z,6.01
2019-02-19T09:12:00.214Z,6.05
2019-02-19T09:13:00.728Z,6.05
2019-02-19T09:14:00.055Z,6.02
2019-02-19T09:15:01.716Z,6.05
2019-02-19T09:16:00.103Z,6.07
2019-02-19T09:17:00.212Z,5.98
2019-02-19T09:18:00.117Z,6.02
2019-02-19T09:19:00.122Z,5.99
2019-02-19T09:20:00.596Z,6.07
2019-02-19T09:21:00.095Z,5.98
2019-02-19T09:22:00.691Z,6.05
2019-02-19T09:23:00.714Z,6.04
2019-02-19T09:24:09.027Z,6.05
2019-02-19T09:24:59.998Z,6.01
2019-02-19T09:26:02.767Z,6.04
2019-02-19T09:27:00.018Z,6.07
2019-02-19T09:28:00.002Z,5.99
2019-02-19T09:29:00.123Z,5.97
2019-02-19T09:29:59.926Z,5.89
2019-02-19T09:31:00.641Z,6.01
2019-02-19T09:31:59.853Z,6.01
2019-02-19T09:33:00.860Z,6.04
2019-02-19T09:34:00.717Z,6.08
2019-02-19T09:35:00.887Z,6.09
2019-02-19T09:36:02.735Z,6.02
2019-02-19T09:36:59.927Z,6.07
2019-02-19T09:38:00.836Z,6.05
2019-02-19T09:38:59.764Z,5.97
2019-02-19T09:39:59.759Z,6.05
2019-02-19T09:41:01.627Z,6.04
2019-02-19T09:42:06.637Z,5.98
2019-02-19T09:43:00.144Z,6.07
2019-02-19T09:43:59.700Z,6.05
2019-02-19T09:45:02.123Z,6.05
2019-02-19T09:46:01.236Z,6.02
2019-02-19T09:47:00.417Z,6.02
2019-02-19T09:48:01.439Z,6.08
2019-02-19T09:49:01.224Z,6.05
2019-02-19T09:49:59.450Z,6.04
2019-02-19T09:50:59.413Z,6.05
2019-02-19T09:52:01.317Z,6.08
2019-02-19T09:53:00.286Z,6.05
2019-02-19T09:54:01.308Z,6.02
2019-02-19T09:54:59.622Z,6.07
2019-02-19T09:55:59.455Z,6.05
2019-02-19T09:57:00.215Z,6.09
2019-02-19T09:57:59.337Z,6.05
2019-02-19T09:58:59.289Z,6.11
2019-02-19T09:59:59.355Z,6.17
2019-02-19T10:00:59.277Z,6.07
2019-02-19T10:02:01.259Z,6.04
2019-02-19T10:02:59.552Z,6.05
2019-02-19T10:03:59.516Z,6.08
2019-02-19T10:05:00.335Z,6.07
2019-02-19T10:05:59.435Z,6.05
2019-02-19T10:06:59.469Z,6.12
2019-02-19T10:07:59.304Z,6.07
2019-02-19T10:10:01.829Z,6.04
2019-02-19T10:11:00.142Z,5.98
2019-02-19T10:11:59.157Z,5.98
2019-02-19T10:12:59.576Z,6.02
2019-02-19T10:13:59.155Z,5.90
2019-02-19T10:14:58.993Z,6.01
2019-02-19T10:16:00.690Z,5.93
2019-02-19T10:17:01.811Z,5.89
2019-02-19T10:17:59.044Z,5.86
2019-02-19T10:18:59.105Z,5.84
2019-02-19T10:19:59.176Z,5.90
2019-02-19T10:20:59.787Z,5.84
2019-02-19T10:21:59.137Z,5.87
2019-02-19T10:23:01.701Z,5.83
2019-02-19T10:23:59.142Z,5.79
2019-02-19T10:25:20.075Z,5.87
2019-02-19T10:25:58.835Z,5.87
2019-02-19T10:26:58.861Z,5.86
2019-02-19T10:27:59.078Z,5.83
2019-02-19T10:29:09.930Z,5.89
2019-02-19T10:30:03.836Z,5.84
2019-02-19T10:31:00.546Z,5.83
2019-02-19T10:32:00.785Z,5.94
2019-02-19T10:32:58.822Z,5.87
2019-02-19T10:33:59.696Z,6.04
2019-02-19T10:35:03.683Z,6.05
2019-02-19T10:35:59.814Z,6.05
2019-02-19T10:36:58.701Z,6.08
2019-02-19T10:37:58.828Z,6.05
2019-02-19T10:38:58.908Z,6.04
2019-02-19T10:43:55.690Z,6.08
2019-02-19T10:44:36.901Z,6.07
2019-02-19T10:48:08.432Z,6.02
2019-02-19T10:48:48.862Z,5.99
2019-02-19T10:49:48.121Z,6.05
2019-02-19T10:51:10.802Z,6.02
2019-02-19T10:51:48.855Z,6.01
2019-02-19T10:52:48.096Z,6.07
2019-02-19T10:53:58.977Z,6.02
2019-02-19T10:54:48.137Z,6.12
2019-02-19T10:55:48.930Z,6.12
2019-02-19T10:56:47.874Z,6.20
2019-02-19T10:57:48.958Z,6.09
2019-02-19T10:58:48.066Z,6.20
2019-02-19T10:59:48.881Z,6.26
2019-02-19T11:00:58.367Z,6.24
2019-02-19T11:01:50.463Z,6.17
2019-02-19T11:02:47.889Z,6.09
2019-02-19T11:03:47.710Z,6.09
2019-02-19T11:04:47.912Z,5.99
2019-02-19T11:06:47.915Z,5.87
2019-02-19T11:07:48.293Z,5.93
2019-02-19T11:08:47.778Z,6.04
2019-02-19T11:10:03.416Z,6.01
2019-02-19T11:10:47.605Z,6.04
2019-02-19T11:11:47.562Z,5.93
2019-02-19T11:12:47.627Z,5.89
2019-02-19T11:13:47.562Z,5.87
2019-02-19T11:14:48.792Z,5.87
2019-02-19T11:15:47.435Z,5.98
2019-02-19T11:16:47.537Z,5.94
2019-02-19T11:17:49.349Z,5.91
2019-02-19T11:18:49.441Z,5.87
2019-02-19T11:19:49.454Z,5.94
2019-02-19T11:20:47.590Z,5.97
2019-02-19T11:25:49.014Z,6.08
2019-02-19T11:26:35.107Z,6.16
2019-02-19T11:30:44.175Z,6.38
2019-02-19T11:34:43.320Z,6.38
2019-02-19T11:35:31.634Z,6.48
2019-02-19T11:36:36.641Z,6.48
2019-02-19T11:37:34.474Z,6.39
2019-02-19T11:38:38.547Z,6.35
2019-02-19T11:42:51.759Z,6.26
2019-02-19T11:43:53.560Z,6.22
2019-02-19T11:47:58.720Z,6.01
2019-02-19T11:51:30.159Z,5.97
2019-02-19T11:55:56.235Z,6.05
2019-02-19T11:56:56.993Z,6.04
2019-02-19T11:58:00.905Z,6.02
2019-02-19T11:59:56.113Z,6.07
2019-02-19T12:00:56.929Z,5.99
2019-02-19T12:01:55.997Z,6.04
2019-02-19T12:02:58.081Z,6.05
2019-02-19T12:04:00.996Z,6.02
2019-02-19T12:05:17.937Z,6.05
2019-02-19T12:06:02.564Z,6.08
2019-02-19T12:07:16.871Z,6.07
2019-02-19T12:07:55.965Z,6.14
2019-02-19T12:08:56.387Z,6.04
2019-02-19T12:09:55.729Z,6.14
2019-02-19T12:10:55.937Z,6.05
2019-02-19T12:11:55.815Z,6.05
2019-02-19T12:12:55.682Z,6.02
2019-02-19T12:13:58.433Z,6.05
2019-02-19T12:14:58.491Z,6.04
2019-02-19T12:16:00.516Z,5.97
2019-02-19T12:16:56.554Z,5.89
2019-02-19T12:17:55.617Z,5.99
2019-02-19T12:18:58.023Z,5.99
2019-02-19T12:19:58.398Z,6.09
2019-02-19T12:32:09.015Z,5.86
2019-02-19T12:32:53.978Z,5.84
2019-02-19T12:33:54.954Z,5.90
2019-02-19T12:35:14.919Z,5.84
2019-02-19T12:41:49.029Z,6.04
2019-02-19T12:42:02.928Z,6.02
2019-02-19T12:43:11.186Z,5.99
2019-02-19T12:44:00.140Z,5.99
2019-02-19T12:45:00.259Z,5.97
2019-02-19T12:46:05.017Z,6.01
2019-02-19T12:47:00.027Z,6.02
2019-02-19T12:48:10.628Z,6.05
2019-02-19T12:54:22.865Z,6.08
2019-02-19T12:54:50.503Z,6.04
2019-02-19T12:56:48.872Z,6.07
2019-02-19T12:57:46.209Z,6.08
2019-02-19T12:58:43.537Z,6.08
2019-02-19T12:59:56.513Z,6.20
2019-02-19T13:00:44.274Z,6.28
2019-02-19T13:02:46.319Z,6.30
2019-02-19T13:03:43.708Z,6.35
2019-02-19T13:04:45.400Z,6.28
2019-02-19T13:05:43.482Z,6.20
2019-02-19T13:06:44.325Z,6.22
2019-02-19T13:07:54.486Z,6.28
2019-02-19T13:08:44.182Z,6.30
2019-02-19T13:09:45.328Z,6.24
2019-02-19T13:10:43.446Z,6.30
2019-02-19T13:11:43.513Z,6.30
2019-02-19T13:13:43.692Z,6.39
2019-02-19T13:16:43.405Z,6.28
2019-02-19T13:17:43.245Z,6.41
2019-02-19T13:18:43.196Z,6.39
2019-02-19T13:19:43.250Z,6.42
2019-02-19T13:20:43.905Z,6.44
2019-02-19T13:21:43.296Z,6.41
2019-02-19T13:22:45.773Z,6.45
2019-02-19T13:23:45.856Z,6.45
2019-02-19T13:25:04.337Z,6.36
2019-02-19T13:25:43.219Z,6.42
2019-02-19T13:26:43.156Z,6.45
2019-02-19T13:27:47.852Z,6.48
2019-02-19T13:28:45.889Z,6.35
2019-02-19T13:31:54.377Z,6.42
2019-02-19T13:32:32.370Z,6.28
2019-02-19T13:34:37.957Z,6.36
2019-02-19T13:40:08.756Z,6.22
2019-02-19T13:41:00.407Z,6.31
2019-02-19T13:42:02.119Z,6.30
2019-02-19T13:43:15.138Z,6.30
2019-02-19T13:44:05.229Z,6.24
2019-02-19T13:45:00.230Z,6.27
2019-02-19T13:52:00.656Z,6.31
2019-02-19T13:59:00.006Z,6.17
2019-02-19T13:59:59.880Z,6.04
2019-02-19T14:00:40.663Z,6.05
2019-02-19T14:01:43.491Z,6.07
2019-02-19T14:02:43.530Z,6.14
2019-02-19T14:04:14.699Z,6.05
2019-02-19T14:04:40.618Z,6.04
2019-02-19T14:05:38.777Z,6.01
2019-02-19T14:06:59.667Z,6.02
2019-02-19T14:07:59.666Z,6.11
2019-02-19T14:08:38.703Z,6.04
2019-02-19T14:09:53.213Z,6.12
2019-02-19T14:10:49.027Z,6.12
2019-02-19T14:11:41.094Z,6.07
2019-02-19T14:12:41.048Z,6.08
2019-02-19T14:14:39.098Z,6.27
2019-02-19T14:15:48.999Z,6.14
2019-02-19T14:16:39.149Z,6.24
2019-02-19T14:17:43.055Z,6.14
2019-02-19T14:18:39.029Z,6.05
2019-02-19T14:19:38.515Z,6.11
2019-02-19T14:20:39.035Z,6.16
2019-02-19T14:21:43.061Z,6.14
2019-02-19T14:22:43.160Z,6.28
2019-02-19T14:23:45.126Z,6.27
2019-02-19T14:24:40.039Z,6.31
2019-02-19T14:25:40.215Z,6.14
2019-02-19T14:27:53.105Z,6.17
2019-02-19T14:28:38.315Z,6.27
2019-02-19T14:29:41.062Z,6.30
2019-02-19T14:30:39.139Z,6.31
2019-02-19T14:31:43.160Z,6.28
2019-02-19T14:33:48.625Z,6.30
2019-02-19T14:34:39.200Z,6.28
2019-02-19T14:35:39.077Z,6.28
2019-02-19T14:36:41.122Z,6.12
2019-02-19T14:37:40.671Z,6.33
2019-02-19T14:38:38.070Z,6.26
2019-02-19T14:39:37.993Z,6.33
2019-02-19T14:40:38.997Z,6.30
2019-02-19T14:41:52.673Z,6.28
2019-02-19T14:42:44.588Z,6.24
2019-02-19T14:43:44.698Z,6.38
2019-02-19T14:44:38.118Z,6.27
2019-02-19T14:45:48.829Z,6.20
2019-02-19T14:46:40.589Z,6.24
2019-02-19T14:47:37.944Z,6.28
2019-02-19T14:48:38.548Z,6.26
2019-02-19T14:49:47.220Z,6.27
2019-02-19T14:50:48.557Z,6.28
2019-02-19T14:51:37.922Z,6.33
2019-02-19T14:52:37.810Z,6.24
2019-02-19T14:54:09.792Z,6.30
2019-02-19T14:54:37.711Z,6.24
2019-02-19T15:00:22.983Z,6.26
2019-02-19T15:08:07.489Z,6.07
2019-02-19T15:08:46.017Z,6.08
2019-02-19T15:12:48.150Z,6.08
2019-02-19T15:13:11.861Z,6.09
2019-02-19T15:20:42.661Z,6.16
2019-02-19T15:21:42.301Z,6.12